sensor_id;sensor_type;location;lat;lon;timestamp;P1;durP1;ratioP1;P2;durP2;ratioP2
37157;SDS011;23050;51.776;22.638;2024-01-30T00:01:14;54.38;;;23.17;;
37157;SDS011;23050;51.776;22.638;2024-01-30T00:03:40;52.25;;;23.15;;
37157;SDS011;23050;51.776;22.638;2024-01-30T00:06:06;59.40;;;23.65;;
37157;SDS011;23050;51.776;22.638;2024-01-30T00:08:35;57.45;;;24.83;;
37157;SDS011;23050;51.776;22.638;2024-01-30T00:11:00;57.78;;;24.08;;
37157;SDS011;23050;51.776;22.638;2024-01-30T00:13:26;58.05;;;24.42;;
37157;SDS011;23050;51.776;22.638;2024-01-30T00:15:52;59.30;;;23.23;;
37157;SDS011;23050;51.776;22.638;2024-01-30T00:18:17;65.65;;;25.25;;
37157;SDS011;23050;51.776;22.638;2024-01-30T00:20:43;58.42;;;24.60;;
37157;SDS011;23050;51.776;22.638;2024-01-30T00:23:09;54.45;;;23.15;;
37157;SDS011;23050;51.776;22.638;2024-01-30T00:25:35;53.22;;;22.73;;
37157;SDS011;23050;51.776;22.638;2024-01-30T00:28:00;55.97;;;24.13;;
37157;SDS011;23050;51.776;22.638;2024-01-30T00:30:26;55.60;;;24.33;;
37157;SDS011;23050;51.776;22.638;2024-01-30T00:32:52;60.53;;;24.27;;
37157;SDS011;23050;51.776;22.638;2024-01-30T00:35:18;56.85;;;23.27;;
37157;SDS011;23050;51.776;22.638;2024-01-30T00:37:43;56.15;;;24.10;;
37157;SDS011;23050;51.776;22.638;2024-01-30T00:40:09;54.47;;;23.90;;
37157;SDS011;23050;51.776;22.638;2024-01-30T00:42:40;58.67;;;24.50;;
37157;SDS011;23050;51.776;22.638;2024-01-30T00:45:11;56.13;;;22.80;;
37157;SDS011;23050;51.776;22.638;2024-01-30T00:47:37;54.85;;;22.20;;
37157;SDS011;23050;51.776;22.638;2024-01-30T00:50:03;52.25;;;22.90;;
37157;SDS011;23050;51.776;22.638;2024-01-30T00:52:29;57.88;;;23.40;;
37157;SDS011;23050;51.776;22.638;2024-01-30T00:54:54;49.38;;;21.70;;
37157;SDS011;23050;51.776;22.638;2024-01-30T00:57:20;49.40;;;21.98;;
37157;SDS011;23050;51.776;22.638;2024-01-30T00:59:45;51.15;;;21.30;;
37157;SDS011;23050;51.776;22.638;2024-01-30T01:02:11;51.15;;;21.48;;
37157;SDS011;23050;51.776;22.638;2024-01-30T01:04:36;50.78;;;21.95;;
37157;SDS011;23050;51.776;22.638;2024-01-30T01:07:02;50.13;;;20.55;;
37157;SDS011;23050;51.776;22.638;2024-01-30T01:09:28;50.55;;;21.52;;
37157;SDS011;23050;51.776;22.638;2024-01-30T01:11:53;52.28;;;20.77;;
37157;SDS011;23050;51.776;22.638;2024-01-30T01:14:19;47.80;;;21.83;;
37157;SDS011;23050;51.776;22.638;2024-01-30T01:16:45;43.28;;;18.80;;
37157;SDS011;23050;51.776;22.638;2024-01-30T01:19:10;49.22;;;21.77;;
37157;SDS011;23050;51.776;22.638;2024-01-30T01:21:36;49.97;;;20.20;;
37157;SDS011;23050;51.776;22.638;2024-01-30T01:24:02;43.03;;;18.67;;
37157;SDS011;23050;51.776;22.638;2024-01-30T01:26:28;45.15;;;19.23;;
37157;SDS011;23050;51.776;22.638;2024-01-30T01:28:54;45.50;;;18.77;;
37157;SDS011;23050;51.776;22.638;2024-01-30T01:31:20;42.40;;;19.13;;
37157;SDS011;23050;51.776;22.638;2024-01-30T01:36:15;42.40;;;17.95;;
37157;SDS011;23050;51.776;22.638;2024-01-30T01:38:40;42.67;;;18.25;;
37157;SDS011;23050;51.776;22.638;2024-01-30T01:41:06;41.47;;;19.58;;
37157;SDS011;23050;51.776;22.638;2024-01-30T01:43:32;43.80;;;19.08;;
37157;SDS011;23050;51.776;22.638;2024-01-30T01:45:57;38.17;;;16.25;;
37157;SDS011;23050;51.776;22.638;2024-01-30T01:48:23;42.13;;;18.77;;
37157;SDS011;23050;51.776;22.638;2024-01-30T01:50:49;34.90;;;16.35;;
37157;SDS011;23050;51.776;22.638;2024-01-30T01:53:15;38.05;;;16.95;;
37157;SDS011;23050;51.776;22.638;2024-01-30T01:55:41;39.72;;;16.13;;
37157;SDS011;23050;51.776;22.638;2024-01-30T01:58:07;37.30;;;16.60;;
37157;SDS011;23050;51.776;22.638;2024-01-30T02:00:34;34.88;;;16.00;;
37157;SDS011;23050;51.776;22.638;2024-01-30T02:03:04;37.78;;;16.42;;
37157;SDS011;23050;51.776;22.638;2024-01-30T02:05:31;34.65;;;15.85;;
37157;SDS011;23050;51.776;22.638;2024-01-30T02:07:57;36.47;;;15.40;;
37157;SDS011;23050;51.776;22.638;2024-01-30T02:10:24;37.72;;;16.33;;
37157;SDS011;23050;51.776;22.638;2024-01-30T02:12:49;30.05;;;14.40;;
37157;SDS011;23050;51.776;22.638;2024-01-30T02:15:15;37.80;;;15.90;;
37157;SDS011;23050;51.776;22.638;2024-01-30T02:17:41;34.20;;;15.95;;
37157;SDS011;23050;51.776;22.638;2024-01-30T02:20:06;33.15;;;14.70;;
37157;SDS011;23050;51.776;22.638;2024-01-30T02:22:33;35.75;;;13.88;;
37157;SDS011;23050;51.776;22.638;2024-01-30T02:25:00;33.15;;;14.05;;
37157;SDS011;23050;51.776;22.638;2024-01-30T02:27:26;35.35;;;15.88;;
37157;SDS011;23050;51.776;22.638;2024-01-30T02:29:51;36.67;;;14.88;;
37157;SDS011;23050;51.776;22.638;2024-01-30T02:32:17;33.88;;;15.25;;
37157;SDS011;23050;51.776;22.638;2024-01-30T02:34:43;30.55;;;13.65;;
37157;SDS011;23050;51.776;22.638;2024-01-30T02:37:08;30.77;;;14.35;;
37157;SDS011;23050;51.776;22.638;2024-01-30T02:39:34;30.63;;;13.75;;
37157;SDS011;23050;51.776;22.638;2024-01-30T02:42:00;30.10;;;13.32;;
37157;SDS011;23050;51.776;22.638;2024-01-30T02:44:25;30.10;;;12.40;;
37157;SDS011;23050;51.776;22.638;2024-01-30T02:46:51;32.20;;;13.15;;
37157;SDS011;23050;51.776;22.638;2024-01-30T02:49:19;34.03;;;13.57;;
37157;SDS011;23050;51.776;22.638;2024-01-30T02:51:45;30.30;;;14.20;;
37157;SDS011;23050;51.776;22.638;2024-01-30T02:54:10;29.55;;;13.52;;
37157;SDS011;23050;51.776;22.638;2024-01-30T02:56:36;37.80;;;12.85;;
37157;SDS011;23050;51.776;22.638;2024-01-30T02:59:01;28.90;;;12.82;;
37157;SDS011;23050;51.776;22.638;2024-01-30T03:01:27;31.75;;;12.90;;
37157;SDS011;23050;51.776;22.638;2024-01-30T03:03:53;28.30;;;12.60;;
37157;SDS011;23050;51.776;22.638;2024-01-30T03:06:18;29.85;;;13.77;;
37157;SDS011;23050;51.776;22.638;2024-01-30T03:08:45;27.25;;;12.10;;
37157;SDS011;23050;51.776;22.638;2024-01-30T03:11:11;31.25;;;12.73;;
37157;SDS011;23050;51.776;22.638;2024-01-30T03:13:36;29.17;;;12.95;;
37157;SDS011;23050;51.776;22.638;2024-01-30T03:16:02;34.17;;;13.15;;
37157;SDS011;23050;51.776;22.638;2024-01-30T03:18:28;30.23;;;12.98;;
37157;SDS011;23050;51.776;22.638;2024-01-30T03:20:53;26.73;;;11.80;;
37157;SDS011;23050;51.776;22.638;2024-01-30T03:23:19;26.80;;;11.82;;
37157;SDS011;23050;51.776;22.638;2024-01-30T03:25:45;23.50;;;12.43;;
37157;SDS011;23050;51.776;22.638;2024-01-30T03:28:10;27.33;;;11.88;;
37157;SDS011;23050;51.776;22.638;2024-01-30T03:30:36;25.10;;;10.93;;
37157;SDS011;23050;51.776;22.638;2024-01-30T03:33:03;26.92;;;12.43;;
37157;SDS011;23050;51.776;22.638;2024-01-30T03:35:29;29.48;;;11.65;;
37157;SDS011;23050;51.776;22.638;2024-01-30T03:37:54;24.80;;;10.90;;
37157;SDS011;23050;51.776;22.638;2024-01-30T03:40:20;29.83;;;13.35;;
37157;SDS011;23050;51.776;22.638;2024-01-30T03:42:46;27.25;;;11.70;;
37157;SDS011;23050;51.776;22.638;2024-01-30T03:45:11;26.85;;;12.70;;
37157;SDS011;23050;51.776;22.638;2024-01-30T03:47:37;28.40;;;11.65;;
37157;SDS011;23050;51.776;22.638;2024-01-30T03:50:03;25.45;;;12.05;;
37157;SDS011;23050;51.776;22.638;2024-01-30T03:52:30;27.52;;;12.10;;
37157;SDS011;23050;51.776;22.638;2024-01-30T03:54:55;28.70;;;12.82;;
37157;SDS011;23050;51.776;22.638;2024-01-30T03:57:21;24.58;;;10.95;;
37157;SDS011;23050;51.776;22.638;2024-01-30T03:59:47;24.30;;;12.15;;
37157;SDS011;23050;51.776;22.638;2024-01-30T04:02:12;28.10;;;12.13;;
37157;SDS011;23050;51.776;22.638;2024-01-30T04:04:38;25.52;;;12.15;;
37157;SDS011;23050;51.776;22.638;2024-01-30T04:07:03;29.65;;;11.88;;
37157;SDS011;23050;51.776;22.638;2024-01-30T04:09:29;24.88;;;11.23;;
37157;SDS011;23050;51.776;22.638;2024-01-30T04:11:55;28.08;;;11.45;;
37157;SDS011;23050;51.776;22.638;2024-01-30T04:14:20;26.63;;;12.38;;
37157;SDS011;23050;51.776;22.638;2024-01-30T04:16:46;26.67;;;10.40;;
37157;SDS011;23050;51.776;22.638;2024-01-30T04:19:11;26.48;;;12.63;;
37157;SDS011;23050;51.776;22.638;2024-01-30T04:21:37;23.17;;;11.20;;
37157;SDS011;23050;51.776;22.638;2024-01-30T04:24:03;25.58;;;11.30;;
37157;SDS011;23050;51.776;22.638;2024-01-30T04:26:29;30.52;;;12.45;;
37157;SDS011;23050;51.776;22.638;2024-01-30T04:28:54;24.42;;;10.20;;
37157;SDS011;23050;51.776;22.638;2024-01-30T04:31:20;26.77;;;11.88;;
37157;SDS011;23050;51.776;22.638;2024-01-30T04:33:45;23.73;;;10.90;;
37157;SDS011;23050;51.776;22.638;2024-01-30T04:36:11;24.88;;;10.73;;
37157;SDS011;23050;51.776;22.638;2024-01-30T04:38:37;24.63;;;11.07;;
37157;SDS011;23050;51.776;22.638;2024-01-30T04:41:04;25.42;;;9.98;;
37157;SDS011;23050;51.776;22.638;2024-01-30T04:43:30;21.73;;;10.43;;
37157;SDS011;23050;51.776;22.638;2024-01-30T04:45:56;22.50;;;10.25;;
37157;SDS011;23050;51.776;22.638;2024-01-30T04:48:21;24.23;;;11.10;;
37157;SDS011;23050;51.776;22.638;2024-01-30T04:50:47;24.23;;;10.70;;
37157;SDS011;23050;51.776;22.638;2024-01-30T04:53:13;23.38;;;9.55;;
37157;SDS011;23050;51.776;22.638;2024-01-30T04:55:38;23.15;;;10.27;;
37157;SDS011;23050;51.776;22.638;2024-01-30T04:58:04;21.10;;;9.10;;
37157;SDS011;23050;51.776;22.638;2024-01-30T05:00:29;25.52;;;10.88;;
37157;SDS011;23050;51.776;22.638;2024-01-30T05:02:55;22.92;;;10.25;;
37157;SDS011;23050;51.776;22.638;2024-01-30T05:05:21;21.85;;;9.85;;
37157;SDS011;23050;51.776;22.638;2024-01-30T05:07:47;22.75;;;10.32;;
37157;SDS011;23050;51.776;22.638;2024-01-30T05:10:13;19.58;;;10.23;;
37157;SDS011;23050;51.776;22.638;2024-01-30T05:12:39;22.63;;;10.45;;
37157;SDS011;23050;51.776;22.638;2024-01-30T05:15:05;25.35;;;10.68;;
37157;SDS011;23050;51.776;22.638;2024-01-30T05:17:31;19.88;;;8.88;;
37157;SDS011;23050;51.776;22.638;2024-01-30T05:19:57;24.95;;;10.45;;
37157;SDS011;23050;51.776;22.638;2024-01-30T05:22:22;20.48;;;10.00;;
37157;SDS011;23050;51.776;22.638;2024-01-30T05:24:48;22.15;;;9.68;;
37157;SDS011;23050;51.776;22.638;2024-01-30T05:27:14;24.25;;;9.90;;
37157;SDS011;23050;51.776;22.638;2024-01-30T05:29:40;21.83;;;9.20;;
37157;SDS011;23050;51.776;22.638;2024-01-30T05:32:08;20.40;;;9.20;;
37157;SDS011;23050;51.776;22.638;2024-01-30T05:34:35;24.55;;;9.75;;
37157;SDS011;23050;51.776;22.638;2024-01-30T05:37:01;21.17;;;9.82;;
37157;SDS011;23050;51.776;22.638;2024-01-30T05:39:27;19.60;;;9.73;;
37157;SDS011;23050;51.776;22.638;2024-01-30T05:41:52;24.27;;;10.10;;
37157;SDS011;23050;51.776;22.638;2024-01-30T05:44:18;22.42;;;10.25;;
37157;SDS011;23050;51.776;22.638;2024-01-30T05:46:43;22.42;;;9.75;;
37157;SDS011;23050;51.776;22.638;2024-01-30T05:49:09;21.38;;;10.40;;
37157;SDS011;23050;51.776;22.638;2024-01-30T05:51:34;20.80;;;10.10;;
37157;SDS011;23050;51.776;22.638;2024-01-30T05:54:00;23.38;;;9.20;;
37157;SDS011;23050;51.776;22.638;2024-01-30T05:56:28;21.80;;;9.55;;
37157;SDS011;23050;51.776;22.638;2024-01-30T05:58:54;21.55;;;10.02;;
37157;SDS011;23050;51.776;22.638;2024-01-30T06:01:20;24.85;;;10.23;;
37157;SDS011;23050;51.776;22.638;2024-01-30T06:03:45;25.45;;;9.27;;
37157;SDS011;23050;51.776;22.638;2024-01-30T06:06:11;25.05;;;10.43;;
37157;SDS011;23050;51.776;22.638;2024-01-30T06:08:37;57.22;;;19.77;;
37157;SDS011;23050;51.776;22.638;2024-01-30T06:11:02;38.50;;;15.88;;
37157;SDS011;23050;51.776;22.638;2024-01-30T06:13:28;64.30;;;23.38;;
37157;SDS011;23050;51.776;22.638;2024-01-30T06:15:56;59.75;;;26.10;;
37157;SDS011;23050;51.776;22.638;2024-01-30T06:18:22;29.73;;;11.95;;
37157;SDS011;23050;51.776;22.638;2024-01-30T06:20:48;29.33;;;14.25;;
37157;SDS011;23050;51.776;22.638;2024-01-30T06:23:14;25.77;;;12.32;;
37157;SDS011;23050;51.776;22.638;2024-01-30T06:25:40;24.52;;;11.65;;
37157;SDS011;23050;51.776;22.638;2024-01-30T06:28:06;100.68;;;46.13;;
37157;SDS011;23050;51.776;22.638;2024-01-30T06:30:31;27.17;;;11.55;;
37157;SDS011;23050;51.776;22.638;2024-01-30T06:32:57;36.60;;;19.55;;
37157;SDS011;23050;51.776;22.638;2024-01-30T06:35:22;18.92;;;10.57;;
37157;SDS011;23050;51.776;22.638;2024-01-30T06:37:48;22.67;;;10.05;;
37157;SDS011;23050;51.776;22.638;2024-01-30T06:40:14;21.42;;;10.30;;
37157;SDS011;23050;51.776;22.638;2024-01-30T06:42:39;18.23;;;9.57;;
37157;SDS011;23050;51.776;22.638;2024-01-30T06:45:05;20.73;;;9.43;;
37157;SDS011;23050;51.776;22.638;2024-01-30T06:47:32;19.23;;;9.60;;
37157;SDS011;23050;51.776;22.638;2024-01-30T06:49:58;19.77;;;9.48;;
37157;SDS011;23050;51.776;22.638;2024-01-30T06:52:24;24.25;;;11.93;;
37157;SDS011;23050;51.776;22.638;2024-01-30T06:54:50;24.83;;;10.90;;
37157;SDS011;23050;51.776;22.638;2024-01-30T06:57:16;24.33;;;11.40;;
37157;SDS011;23050;51.776;22.638;2024-01-30T06:59:41;21.05;;;9.43;;
37157;SDS011;23050;51.776;22.638;2024-01-30T07:02:09;124.43;;;56.25;;
37157;SDS011;23050;51.776;22.638;2024-01-30T07:04:35;44.70;;;22.73;;
37157;SDS011;23050;51.776;22.638;2024-01-30T07:07:02;59.17;;;31.25;;
37157;SDS011;23050;51.776;22.638;2024-01-30T07:09:30;24.65;;;12.93;;
37157;SDS011;23050;51.776;22.638;2024-01-30T07:11:55;22.92;;;11.77;;
37157;SDS011;23050;51.776;22.638;2024-01-30T07:14:23;24.30;;;10.35;;
37157;SDS011;23050;51.776;22.638;2024-01-30T07:16:49;22.20;;;11.02;;
37157;SDS011;23050;51.776;22.638;2024-01-30T07:19:15;22.80;;;9.90;;
37157;SDS011;23050;51.776;22.638;2024-01-30T07:21:41;27.70;;;14.30;;
37157;SDS011;23050;51.776;22.638;2024-01-30T07:24:07;29.08;;;12.18;;
37157;SDS011;23050;51.776;22.638;2024-01-30T07:26:32;21.15;;;9.88;;
37157;SDS011;23050;51.776;22.638;2024-01-30T07:28:58;16.25;;;8.68;;
37157;SDS011;23050;51.776;22.638;2024-01-30T07:31:24;17.48;;;8.57;;
37157;SDS011;23050;51.776;22.638;2024-01-30T07:33:49;19.20;;;9.35;;
37157;SDS011;23050;51.776;22.638;2024-01-30T07:36:15;15.90;;;8.38;;
37157;SDS011;23050;51.776;22.638;2024-01-30T07:38:41;19.40;;;9.90;;
37157;SDS011;23050;51.776;22.638;2024-01-30T07:41:06;16.90;;;8.15;;
37157;SDS011;23050;51.776;22.638;2024-01-30T07:43:33;15.15;;;8.02;;
37157;SDS011;23050;51.776;22.638;2024-01-30T07:45:58;17.67;;;8.80;;
37157;SDS011;23050;51.776;22.638;2024-01-30T07:48:26;17.15;;;7.78;;
37157;SDS011;23050;51.776;22.638;2024-01-30T07:50:52;20.17;;;8.65;;
37157;SDS011;23050;51.776;22.638;2024-01-30T07:53:18;15.30;;;8.27;;
37157;SDS011;23050;51.776;22.638;2024-01-30T07:55:44;19.10;;;9.15;;
37157;SDS011;23050;51.776;22.638;2024-01-30T07:58:11;18.73;;;9.60;;
37157;SDS011;23050;51.776;22.638;2024-01-30T08:00:37;17.10;;;8.65;;
37157;SDS011;23050;51.776;22.638;2024-01-30T08:03:04;20.23;;;9.77;;
37157;SDS011;23050;51.776;22.638;2024-01-30T08:05:30;18.73;;;8.02;;
37157;SDS011;23050;51.776;22.638;2024-01-30T08:07:56;14.98;;;8.32;;
37157;SDS011;23050;51.776;22.638;2024-01-30T08:10:22;14.68;;;8.15;;
37157;SDS011;23050;51.776;22.638;2024-01-30T08:12:47;15.98;;;8.77;;
37157;SDS011;23050;51.776;22.638;2024-01-30T08:15:13;16.80;;;8.15;;
37157;SDS011;23050;51.776;22.638;2024-01-30T08:17:39;14.75;;;8.93;;
37157;SDS011;23050;51.776;22.638;2024-01-30T08:20:05;19.80;;;7.93;;
37157;SDS011;23050;51.776;22.638;2024-01-30T08:22:33;12.88;;;7.38;;
37157;SDS011;23050;51.776;22.638;2024-01-30T08:24:59;15.00;;;7.88;;
37157;SDS011;23050;51.776;22.638;2024-01-30T08:27:24;18.63;;;9.48;;
37157;SDS011;23050;51.776;22.638;2024-01-30T08:29:50;22.58;;;13.13;;
37157;SDS011;23050;51.776;22.638;2024-01-30T08:32:16;21.02;;;10.63;;
37157;SDS011;23050;51.776;22.638;2024-01-30T08:34:41;28.27;;;17.73;;
37157;SDS011;23050;51.776;22.638;2024-01-30T08:37:07;24.90;;;11.82;;
37157;SDS011;23050;51.776;22.638;2024-01-30T08:39:33;18.05;;;10.38;;
37157;SDS011;23050;51.776;22.638;2024-01-30T08:41:59;16.25;;;9.05;;
37157;SDS011;23050;51.776;22.638;2024-01-30T08:44:25;20.52;;;9.88;;
37157;SDS011;23050;51.776;22.638;2024-01-30T08:46:50;15.43;;;8.60;;
37157;SDS011;23050;51.776;22.638;2024-01-30T08:49:16;17.00;;;9.23;;
37157;SDS011;23050;51.776;22.638;2024-01-30T08:51:42;14.50;;;8.43;;
37157;SDS011;23050;51.776;22.638;2024-01-30T08:54:08;17.80;;;8.82;;
37157;SDS011;23050;51.776;22.638;2024-01-30T08:56:33;14.35;;;7.65;;
37157;SDS011;23050;51.776;22.638;2024-01-30T08:58:59;19.30;;;8.88;;
37157;SDS011;23050;51.776;22.638;2024-01-30T09:01:25;16.25;;;8.18;;
37157;SDS011;23050;51.776;22.638;2024-01-30T09:03:51;16.67;;;8.40;;
37157;SDS011;23050;51.776;22.638;2024-01-30T09:06:17;19.33;;;7.72;;
37157;SDS011;23050;51.776;22.638;2024-01-30T09:08:43;17.75;;;8.52;;
37157;SDS011;23050;51.776;22.638;2024-01-30T09:11:09;15.88;;;8.27;;
37157;SDS011;23050;51.776;22.638;2024-01-30T09:13:38;17.50;;;8.52;;
37157;SDS011;23050;51.776;22.638;2024-01-30T09:16:05;30.15;;;13.93;;
37157;SDS011;23050;51.776;22.638;2024-01-30T09:18:30;27.05;;;13.00;;
37157;SDS011;23050;51.776;22.638;2024-01-30T09:20:56;18.40;;;9.15;;
37157;SDS011;23050;51.776;22.638;2024-01-30T09:23:22;18.70;;;9.48;;
37157;SDS011;23050;51.776;22.638;2024-01-30T09:25:48;16.35;;;8.75;;
37157;SDS011;23050;51.776;22.638;2024-01-30T09:28:14;15.48;;;7.60;;
37157;SDS011;23050;51.776;22.638;2024-01-30T09:30:40;15.05;;;7.55;;
37157;SDS011;23050;51.776;22.638;2024-01-30T09:33:06;14.35;;;8.35;;
37157;SDS011;23050;51.776;22.638;2024-01-30T09:35:32;15.00;;;8.48;;
37157;SDS011;23050;51.776;22.638;2024-01-30T09:37:58;12.10;;;7.60;;
37157;SDS011;23050;51.776;22.638;2024-01-30T09:40:24;13.93;;;7.80;;
37157;SDS011;23050;51.776;22.638;2024-01-30T09:42:50;14.75;;;8.43;;
37157;SDS011;23050;51.776;22.638;2024-01-30T09:45:20;14.43;;;8.45;;
37157;SDS011;23050;51.776;22.638;2024-01-30T09:47:50;14.73;;;8.85;;
37157;SDS011;23050;51.776;22.638;2024-01-30T09:50:16;14.65;;;7.80;;
37157;SDS011;23050;51.776;22.638;2024-01-30T09:52:43;19.60;;;10.00;;
37157;SDS011;23050;51.776;22.638;2024-01-30T09:55:09;23.75;;;14.30;;
37157;SDS011;23050;51.776;22.638;2024-01-30T09:57:35;20.83;;;11.15;;
37157;SDS011;23050;51.776;22.638;2024-01-30T10:00:02;22.05;;;12.63;;
37157;SDS011;23050;51.776;22.638;2024-01-30T10:02:35;19.55;;;10.68;;
37157;SDS011;23050;51.776;22.638;2024-01-30T10:05:01;24.27;;;13.05;;
37157;SDS011;23050;51.776;22.638;2024-01-30T10:07:27;29.70;;;14.18;;
37157;SDS011;23050;51.776;22.638;2024-01-30T10:09:53;22.58;;;10.80;;
37157;SDS011;23050;51.776;22.638;2024-01-30T10:12:21;20.85;;;10.90;;
37157;SDS011;23050;51.776;22.638;2024-01-30T10:14:47;18.40;;;11.05;;
37157;SDS011;23050;51.776;22.638;2024-01-30T10:17:13;17.13;;;9.52;;
37157;SDS011;23050;51.776;22.638;2024-01-30T10:19:39;18.63;;;8.57;;
37157;SDS011;23050;51.776;22.638;2024-01-30T10:22:06;21.05;;;10.30;;
37157;SDS011;23050;51.776;22.638;2024-01-30T10:24:35;24.23;;;12.45;;
37157;SDS011;23050;51.776;22.638;2024-01-30T10:27:01;18.35;;;8.75;;
37157;SDS011;23050;51.776;22.638;2024-01-30T10:29:28;25.27;;;12.00;;
37157;SDS011;23050;51.776;22.638;2024-01-30T10:32:00;19.02;;;9.90;;
37157;SDS011;23050;51.776;22.638;2024-01-30T10:34:27;19.83;;;9.13;;
37157;SDS011;23050;51.776;22.638;2024-01-30T10:36:59;22.73;;;9.55;;
37157;SDS011;23050;51.776;22.638;2024-01-30T10:39:32;17.48;;;8.88;;
37157;SDS011;23050;51.776;22.638;2024-01-30T10:42:04;19.40;;;9.10;;
37157;SDS011;23050;51.776;22.638;2024-01-30T10:44:34;18.98;;;9.10;;
37157;SDS011;23050;51.776;22.638;2024-01-30T10:47:06;21.70;;;10.40;;
37157;SDS011;23050;51.776;22.638;2024-01-30T10:49:35;18.02;;;9.00;;
37157;SDS011;23050;51.776;22.638;2024-01-30T10:52:03;23.98;;;9.85;;
37157;SDS011;23050;51.776;22.638;2024-01-30T10:54:30;21.17;;;11.13;;
37157;SDS011;23050;51.776;22.638;2024-01-30T10:56:58;33.43;;;17.07;;
37157;SDS011;23050;51.776;22.638;2024-01-30T10:59:26;24.05;;;14.45;;
37157;SDS011;23050;51.776;22.638;2024-01-30T11:01:53;19.77;;;9.55;;
37157;SDS011;23050;51.776;22.638;2024-01-30T11:04:19;20.85;;;9.18;;
37157;SDS011;23050;51.776;22.638;2024-01-30T11:06:45;20.17;;;9.55;;
37157;SDS011;23050;51.776;22.638;2024-01-30T11:09:16;17.60;;;9.30;;
37157;SDS011;23050;51.776;22.638;2024-01-30T11:14:25;13.82;;;8.48;;
37157;SDS011;23050;51.776;22.638;2024-01-30T11:16:51;16.00;;;8.20;;
37157;SDS011;23050;51.776;22.638;2024-01-30T11:19:23;19.15;;;10.10;;
37157;SDS011;23050;51.776;22.638;2024-01-30T11:21:55;18.83;;;9.88;;
37157;SDS011;23050;51.776;22.638;2024-01-30T11:24:22;18.30;;;9.63;;
37157;SDS011;23050;51.776;22.638;2024-01-30T11:26:49;15.38;;;8.82;;
37157;SDS011;23050;51.776;22.638;2024-01-30T11:29:20;18.38;;;7.72;;
37157;SDS011;23050;51.776;22.638;2024-01-30T11:31:53;16.63;;;8.43;;
37157;SDS011;23050;51.776;22.638;2024-01-30T11:34:22;12.75;;;8.00;;
37157;SDS011;23050;51.776;22.638;2024-01-30T11:36:58;15.85;;;8.80;;
37157;SDS011;23050;51.776;22.638;2024-01-30T11:39:26;19.10;;;8.23;;
37157;SDS011;23050;51.776;22.638;2024-01-30T11:41:54;17.17;;;8.60;;
37157;SDS011;23050;51.776;22.638;2024-01-30T11:44:20;16.42;;;9.88;;
37157;SDS011;23050;51.776;22.638;2024-01-30T11:46:49;22.85;;;14.50;;
37157;SDS011;23050;51.776;22.638;2024-01-30T11:49:16;37.40;;;18.95;;
37157;SDS011;23050;51.776;22.638;2024-01-30T11:51:43;20.90;;;11.07;;
37157;SDS011;23050;51.776;22.638;2024-01-30T11:54:10;15.00;;;9.07;;
37157;SDS011;23050;51.776;22.638;2024-01-30T11:56:37;13.70;;;7.93;;
37157;SDS011;23050;51.776;22.638;2024-01-30T11:59:03;17.92;;;9.18;;
37157;SDS011;23050;51.776;22.638;2024-01-30T12:01:29;14.90;;;8.63;;
37157;SDS011;23050;51.776;22.638;2024-01-30T12:03:57;14.85;;;8.18;;
37157;SDS011;23050;51.776;22.638;2024-01-30T12:06:23;15.88;;;9.32;;
37157;SDS011;23050;51.776;22.638;2024-01-30T12:09:01;25.25;;;11.32;;
37157;SDS011;23050;51.776;22.638;2024-01-30T12:11:33;16.63;;;8.30;;
37157;SDS011;23050;51.776;22.638;2024-01-30T12:14:11;14.50;;;8.25;;
37157;SDS011;23050;51.776;22.638;2024-01-30T12:16:38;17.88;;;8.95;;
37157;SDS011;23050;51.776;22.638;2024-01-30T12:19:03;17.27;;;8.45;;
37157;SDS011;23050;51.776;22.638;2024-01-30T12:24:05;17.23;;;8.85;;
37157;SDS011;23050;51.776;22.638;2024-01-30T12:26:32;20.23;;;11.18;;
37157;SDS011;23050;51.776;22.638;2024-01-30T12:28:58;103.40;;;41.45;;
37157;SDS011;23050;51.776;22.638;2024-01-30T12:31:31;69.35;;;36.10;;
37157;SDS011;23050;51.776;22.638;2024-01-30T12:33:59;57.30;;;27.48;;
37157;SDS011;23050;51.776;22.638;2024-01-30T12:36:25;61.75;;;30.83;;
37157;SDS011;23050;51.776;22.638;2024-01-30T12:38:51;84.30;;;45.30;;
37157;SDS011;23050;51.776;22.638;2024-01-30T12:41:17;17.10;;;9.32;;
37157;SDS011;23050;51.776;22.638;2024-01-30T12:43:43;22.75;;;12.10;;
37157;SDS011;23050;51.776;22.638;2024-01-30T12:46:09;24.60;;;11.05;;
37157;SDS011;23050;51.776;22.638;2024-01-30T12:48:34;22.33;;;12.20;;
37157;SDS011;23050;51.776;22.638;2024-01-30T12:51:00;14.63;;;8.82;;
37157;SDS011;23050;51.776;22.638;2024-01-30T12:53:26;16.08;;;9.77;;
37157;SDS011;23050;51.776;22.638;2024-01-30T12:55:52;14.65;;;7.47;;
37157;SDS011;23050;51.776;22.638;2024-01-30T12:58:19;30.95;;;15.18;;
37157;SDS011;23050;51.776;22.638;2024-01-30T13:00:45;19.80;;;11.07;;
37157;SDS011;23050;51.776;22.638;2024-01-30T13:03:12;19.15;;;10.73;;
37157;SDS011;23050;51.776;22.638;2024-01-30T13:05:38;63.28;;;33.47;;
37157;SDS011;23050;51.776;22.638;2024-01-30T13:08:03;20.52;;;9.48;;
37157;SDS011;23050;51.776;22.638;2024-01-30T13:10:29;27.17;;;15.90;;
37157;SDS011;23050;51.776;22.638;2024-01-30T13:12:55;18.23;;;9.15;;
37157;SDS011;23050;51.776;22.638;2024-01-30T13:15:21;19.70;;;11.70;;
37157;SDS011;23050;51.776;22.638;2024-01-30T13:17:48;25.02;;;13.35;;
37157;SDS011;23050;51.776;22.638;2024-01-30T13:20:14;21.67;;;11.15;;
37157;SDS011;23050;51.776;22.638;2024-01-30T13:25:09;18.08;;;9.40;;
37157;SDS011;23050;51.776;22.638;2024-01-30T13:27:35;17.02;;;9.43;;
37157;SDS011;23050;51.776;22.638;2024-01-30T13:30:02;32.85;;;18.05;;
37157;SDS011;23050;51.776;22.638;2024-01-30T13:32:28;20.60;;;10.60;;
37157;SDS011;23050;51.776;22.638;2024-01-30T13:34:54;29.00;;;15.70;;
37157;SDS011;23050;51.776;22.638;2024-01-30T13:37:20;27.02;;;14.60;;
37157;SDS011;23050;51.776;22.638;2024-01-30T13:39:47;18.25;;;9.88;;
37157;SDS011;23050;51.776;22.638;2024-01-30T13:42:12;19.83;;;9.40;;
37157;SDS011;23050;51.776;22.638;2024-01-30T13:44:38;18.05;;;9.82;;
37157;SDS011;23050;51.776;22.638;2024-01-30T13:47:04;22.80;;;11.40;;
37157;SDS011;23050;51.776;22.638;2024-01-30T13:49:29;28.30;;;13.27;;
37157;SDS011;23050;51.776;22.638;2024-01-30T13:51:55;26.67;;;12.65;;
37157;SDS011;23050;51.776;22.638;2024-01-30T13:54:21;19.38;;;11.18;;
37157;SDS011;23050;51.776;22.638;2024-01-30T13:56:46;20.80;;;10.98;;
37157;SDS011;23050;51.776;22.638;2024-01-30T13:59:12;29.40;;;13.90;;
37157;SDS011;23050;51.776;22.638;2024-01-30T14:01:38;25.95;;;15.30;;
37157;SDS011;23050;51.776;22.638;2024-01-30T14:04:04;20.05;;;11.77;;
37157;SDS011;23050;51.776;22.638;2024-01-30T14:06:29;27.48;;;15.00;;
37157;SDS011;23050;51.776;22.638;2024-01-30T14:08:55;22.40;;;12.50;;
37157;SDS011;23050;51.776;22.638;2024-01-30T14:11:21;23.95;;;11.95;;
37157;SDS011;23050;51.776;22.638;2024-01-30T14:13:47;18.10;;;10.70;;
37157;SDS011;23050;51.776;22.638;2024-01-30T14:16:13;20.58;;;10.02;;
37157;SDS011;23050;51.776;22.638;2024-01-30T14:18:39;23.02;;;11.95;;